Time;durP1;ratioP1;P1;durP2;ratioP2;P2;SDS_P1;SDS_P2;PMS_P1;PMS_P2;Temp;Humidity;BMP_temperature;BMP_pressure;BME280_temperature;BME280_humidity;BME280_pressure;Samples;Min_cycle;Max_cycle;Signal;HPM_P1;HPM_P2
2024/01/27 00:00:23;;;;;;;36.00;4.50;;;5.60;99.90;;;;;;5073463;28;20189;-50
2024/01/27 00:02:48;;;;;;;50.03;5.90;;;5.60;99.90;;;;;;5073457;28;20188;-50
2024/01/27 00:05:14;;;;;;;31.20;4.00;;;5.60;99.90;;;;;;5073730;28;20174;-50
2024/01/27 00:07:40;;;;;;;30.13;4.10;;;5.60;99.90;;;;;;5073217;28;20301;-50
2024/01/27 00:10:06;;;;;;;26.13;3.90;;;5.60;99.90;;;;;;5073578;28;20209;-49
2024/01/27 00:12:32;;;;;;;41.40;5.17;;;5.60;99.90;;;;;;5073774;28;20464;-50
2024/01/27 00:14:57;;;;;;;33.83;5.37;;;5.70;99.90;;;;;;5073721;28;20465;-51
2024/01/27 00:17:25;;;;;;;32.40;4.80;;;5.70;99.90;;;;;;5073959;28;20254;-51
2024/01/27 00:19:51;;;;;;;25.00;5.20;;;5.70;99.90;;;;;;5073525;28;20313;-50
2024/01/27 00:22:17;;;;;;;30.20;4.97;;;5.80;99.90;;;;;;5073567;28;20417;-50
2024/01/27 00:24:43;;;;;;;26.80;4.70;;;5.80;99.90;;;;;;5073830;28;20737;-50
2024/01/27 00:27:08;;;;;;;35.60;4.87;;;5.80;99.90;;;;;;5073217;28;20178;-50
2024/01/27 00:29:34;;;;;;;27.63;4.73;;;5.70;99.90;;;;;;5073333;28;20630;-50
2024/01/27 00:31:59;;;;;;;34.87;4.50;;;5.70;99.90;;;;;;5073313;28;20210;-50
2024/01/27 00:34:25;;;;;;;40.33;4.50;;;5.70;99.90;;;;;;5073184;28;20635;-51
2024/01/27 00:36:51;;;;;;;33.40;5.07;;;5.70;99.90;;;;;;5072678;28;20178;-50
2024/01/27 00:39:17;;;;;;;31.00;4.70;;;5.70;99.90;;;;;;5071666;28;20235;-50
2024/01/27 00:41:43;;;;;;;35.97;4.30;;;5.70;99.90;;;;;;5072098;28;20197;-50
2024/01/27 00:44:09;;;;;;;23.67;4.50;;;5.70;99.90;;;;;;5072964;28;20815;-50
2024/01/27 00:46:36;;;;;;;38.43;4.50;;;5.80;99.90;;;;;;5073396;28;20416;-50
2024/01/27 00:49:02;;;;;;;25.20;4.10;;;5.80;99.90;;;;;;5073590;28;20414;-50
2024/01/27 00:51:27;;;;;;;35.43;4.40;;;5.80;99.90;;;;;;5073822;28;20551;-50
2024/01/27 00:53:53;;;;;;;28.63;4.60;;;5.80;99.90;;;;;;5073326;28;20661;-50
2024/01/27 00:56:18;;;;;;;25.57;5.10;;;5.80;99.90;;;;;;5073405;28;20570;-50
2024/01/27 00:58:44;;;;;;;22.43;4.00;;;5.80;99.90;;;;;;5073659;28;20184;-50
2024/01/27 01:01:10;;;;;;;27.30;4.27;;;5.80;99.90;;;;;;5073534;28;20539;-50
2024/01/27 01:03:36;;;;;;;43.37;5.53;;;5.80;99.90;;;;;;5072383;28;20193;-49
2024/01/27 01:06:01;;;;;;;34.40;4.70;;;5.80;99.90;;;;;;5073031;28;20179;-49
2024/01/27 01:08:27;;;;;;;24.73;4.23;;;5.80;99.90;;;;;;5072575;28;20478;-49
2024/01/27 01:10:53;;;;;;;35.80;4.13;;;5.80;99.90;;;;;;5072981;28;20178;-50
2024/01/27 01:13:18;;;;;;;30.10;5.03;;;5.80;99.90;;;;;;5072552;28;20228;-48
2024/01/27 01:15:44;;;;;;;39.30;5.80;;;5.80;99.90;;;;;;5073034;28;20189;-50
2024/01/27 01:18:09;;;;;;;25.87;4.80;;;5.80;99.90;;;;;;5073031;28;20650;-50
2024/01/27 01:20:35;;;;;;;29.00;4.07;;;5.80;99.90;;;;;;5072926;28;20178;-50
2024/01/27 01:23:01;;;;;;;31.53;5.10;;;5.80;99.90;;;;;;5072683;28;20182;-50
2024/01/27 01:25:26;;;;;;;36.70;6.07;;;5.90;99.90;;;;;;5072857;28;20182;-50
2024/01/27 01:27:52;;;;;;;35.07;4.53;;;5.80;99.90;;;;;;5073925;28;20235;-50
2024/01/27 01:30:18;;;;;;;33.30;4.70;;;5.90;99.90;;;;;;5076746;28;20646;-50
2024/01/27 01:32:44;;;;;;;32.07;4.93;;;5.90;99.90;;;;;;5076825;28;20210;-49
2024/01/27 01:35:12;;;;;;;27.30;5.00;;;5.90;99.90;;;;;;5076694;28;20424;-50
2024/01/27 01:37:39;;;;;;;33.60;6.10;;;5.90;99.90;;;;;;5076572;28;20182;-50
2024/01/27 01:40:06;;;;;;;40.95;6.07;;;5.90;99.90;;;;;;5076192;28;20940;-50
2024/01/27 01:42:32;;;;;;;40.30;6.30;;;5.90;99.90;;;;;;5076559;28;20181;-50
2024/01/27 01:44:58;;;;;;;34.33;4.43;;;5.90;99.90;;;;;;5076333;28;20423;-51
2024/01/27 01:47:23;;;;;;;34.63;5.50;;;5.90;99.90;;;;;;5076366;28;20185;-50
2024/01/27 01:49:49;;;;;;;29.37;6.30;;;5.90;99.90;;;;;;5075962;28;20241;-51
2024/01/27 01:52:19;;;;;;;34.20;5.50;;;5.90;99.90;;;;;;5076116;28;20235;-51
2024/01/27 01:54:48;;;;;;;25.50;4.37;;;5.90;99.90;;;;;;5076277;28;20186;-50
2024/01/27 01:57:14;;;;;;;36.87;4.70;;;5.90;99.90;;;;;;5076190;28;20412;-50
2024/01/27 01:59:41;;;;;;;27.87;4.77;;;5.90;99.90;;;;;;5076337;28;20764;-50
2024/01/27 02:02:10;;;;;;;40.17;4.67;;;5.90;99.90;;;;;;5076005;28;20422;-50
2024/01/27 02:04:48;;;;;;;47.03;5.93;;;5.80;1.00;;;;;;5075994;28;20413;-50
2024/01/27 02:07:14;;;;;;;22.37;4.30;;;5.80;1.00;;;;;;5075939;28;20476;-51
2024/01/27 02:09:39;;;;;;;36.63;4.63;;;5.80;1.00;;;;;;5075686;28;20899;-51
2024/01/27 02:12:06;;;;;;;32.17;4.50;;;5.80;1.00;;;;;;5075929;28;20462;-51
2024/01/27 02:14:32;;;;;;;44.93;6.30;;;5.80;1.00;;;;;;5076122;28;20205;-50
2024/01/27 02:16:58;;;;;;;30.70;4.73;;;5.80;1.00;;;;;;5075533;28;20530;-50
2024/01/27 02:19:24;;;;;;;28.47;4.20;;;5.80;1.00;;;;;;5075944;28;20210;-50
2024/01/27 02:21:50;;;;;;;29.57;5.00;;;5.80;1.00;;;;;;5075377;28;20194;-51
2024/01/27 02:24:15;;;;;;;38.10;4.57;;;5.90;1.00;;;;;;5075903;28;20470;-50
2024/01/27 02:26:41;;;;;;;29.47;4.13;;;5.80;1.00;;;;;;5075290;28;20190;-49
2024/01/27 02:29:07;;;;;;;35.23;4.60;;;5.90;1.00;;;;;;5075580;28;20240;-50
2024/01/27 02:31:32;;;;;;;28.33;4.77;;;5.80;1.00;;;;;;5076054;28;20237;-48
2024/01/27 02:33:58;;;;;;;50.20;5.67;;;5.80;1.00;;;;;;5075324;28;20201;-48
2024/01/27 02:36:23;;;;;;;31.20;4.50;;;5.80;1.00;;;;;;5075807;28;20175;-50
2024/01/27 02:38:49;;;;;;;35.00;4.43;;;5.80;1.00;;;;;;5075475;28;20201;-49
2024/01/27 02:41:14;;;;;;;29.63;4.40;;;5.80;1.00;;;;;;5075947;28;20182;-50
2024/01/27 02:43:40;;;;;;;25.23;5.47;;;5.80;1.00;;;;;;5075203;28;20186;-50
2024/01/27 02:46:12;;;;;;;25.03;4.27;;;5.80;1.00;;;;;;5075208;28;20194;-50
2024/01/27 02:48:44;;;;;;;32.97;5.20;;;5.80;1.00;;;;;;5075790;28;20821;-50
2024/01/27 02:51:10;;;;;;;30.40;4.77;;;5.70;1.00;;;;;;5075405;28;20873;-48
2024/01/27 02:53:36;;;;;;;33.90;4.23;;;5.70;1.00;;;;;;5075144;28;20495;-49
2024/01/27 02:56:02;;;;;;;38.97;5.13;;;5.70;1.00;;;;;;5075568;28;20174;-49
2024/01/27 02:58:27;;;;;;;32.37;4.70;;;5.70;1.00;;;;;;5075249;28;20173;-48
2024/01/27 03:00:53;;;;;;;33.20;4.20;;;5.60;1.00;;;;;;5075155;28;20633;-48
2024/01/27 03:03:19;;;;;;;30.57;4.07;;;5.70;1.00;;;;;;5075108;28;20275;-48
2024/01/27 03:05:44;;;;;;;34.97;4.53;;;5.70;1.00;;;;;;5074872;28;20174;-49
2024/01/27 03:08:10;;;;;;;26.73;4.27;;;5.70;1.00;;;;;;5072797;28;20692;-48
2024/01/27 03:10:36;;;;;;;35.43;5.23;;;5.70;1.00;;;;;;5071380;28;20577;-48
2024/01/27 03:13:01;;;;;;;42.20;5.83;;;5.70;1.00;;;;;;5070822;28;20263;-49
2024/01/27 03:15:27;;;;;;;30.63;4.37;;;5.70;1.00;;;;;;5073342;28;20792;-48
2024/01/27 03:17:52;;;;;;;36.67;3.77;;;5.60;1.00;;;;;;5069903;28;20181;-49
2024/01/27 03:20:18;;;;;;;27.77;4.20;;;5.60;1.00;;;;;;5072019;28;20178;-49
2024/01/27 03:22:43;;;;;;;35.70;4.77;;;5.60;1.00;;;;;;5071712;28;20281;-49
2024/01/27 03:25:13;;;;;;;34.60;5.00;;;5.60;1.00;;;;;;5069625;28;20190;-49
2024/01/27 03:27:38;;;;;;;37.27;4.77;;;5.60;1.00;;;;;;5072227;28;20182;-49
2024/01/27 03:30:05;;;;;;;42.33;5.60;;;5.50;1.00;;;;;;5071261;28;20732;-49
2024/01/27 03:32:34;;;;;;;30.20;5.13;;;5.50;14.20;;;;;;5069878;28;20287;-49
2024/01/27 03:35:00;;;;;;;34.20;4.80;;;5.50;55.30;;;;;;5071819;28;20824;-48
2024/01/27 03:37:26;;;;;;;33.33;4.17;;;5.50;95.30;;;;;;5072258;28;20508;-48
2024/01/27 03:39:51;;;;;;;32.07;5.27;;;5.50;77.80;;;;;;5069858;28;20511;-48
2024/01/27 03:42:17;;;;;;;27.50;4.17;;;5.50;16.00;;;;;;5070988;28;20242;-48
2024/01/27 03:44:42;;;;;;;41.90;4.77;;;5.50;1.00;;;;;;5070655;28;20178;-48
2024/01/27 03:47:08;;;;;;;27.77;4.63;;;5.50;21.50;;;;;;5071822;28;20178;-48
2024/01/27 03:49:33;;;;;;;37.23;5.10;;;5.50;49.80;;;;;;5071514;28;20265;-48
2024/01/27 03:51:59;;;;;;;27.40;4.23;;;5.50;87.00;;;;;;5068960;28;20233;-48
2024/01/27 03:54:25;;;;;;;34.10;5.63;;;5.50;75.00;;;;;;5071744;28;20717;-48
2024/01/27 03:56:50;;;;;;;25.27;4.67;;;5.40;78.30;;;;;;5071449;28;20516;-48
2024/01/27 03:59:16;;;;;;;34.47;4.73;;;5.40;99.90;;;;;;5070664;28;20178;-48
2024/01/27 04:01:42;;;;;;;30.67;6.23;;;5.40;99.90;;;;;;5070556;28;20510;-49
2024/01/27 04:04:07;;;;;;;30.80;4.50;;;5.40;99.90;;;;;;5070014;28;20256;-48
2024/01/27 04:06:51;;;;;;;32.27;4.50;;;5.40;76.10;;;;;;5071420;28;20959;-48
2024/01/27 04:09:16;;;;;;;24.47;5.00;;;5.30;99.90;;;;;;5070676;28;20187;-48
2024/01/27 04:11:42;;;;;;;26.63;4.87;;;5.30;99.90;;;;;;5071052;28;20982;-49
2024/01/27 04:14:08;;;;;;;21.00;4.73;;;5.30;99.90;;;;;;5069422;28;20563;-48
2024/01/27 04:16:34;;;;;;;34.00;4.53;;;5.30;99.90;;;;;;5071286;28;20662;-49
2024/01/27 04:19:00;;;;;;;32.83;4.40;;;5.30;99.90;;;;;;5070971;28;20412;-49
2024/01/27 04:21:25;;;;;;;37.50;5.00;;;5.20;99.90;;;;;;5070801;28;20182;-49
2024/01/27 04:23:51;;;;;;;36.43;5.07;;;5.20;99.90;;;;;;5069997;28;20178;-49
2024/01/27 04:26:16;;;;;;;22.50;4.43;;;5.10;99.90;;;;;;5070493;28;20192;-49
2024/01/27 04:28:42;;;;;;;37.50;5.90;;;5.10;99.90;;;;;;5070787;28;20185;-49
2024/01/27 04:31:07;;;;;;;30.83;4.60;;;5.10;1.00;;;;;;5071267;28;20632;-49
2024/01/27 04:33:33;;;;;;;31.23;4.40;;;5.00;1.00;;;;;;5069593;28;20239;-49
2024/01/27 04:35:59;;;;;;;35.47;4.63;;;5.00;1.00;;;;;;5069915;28;20182;-49
2024/01/27 04:38:25;;;;;;;21.87;4.30;;;4.90;1.00;;;;;;5070479;28;20260;-49
2024/01/27 04:40:52;;;;;;;26.97;4.93;;;4.90;1.00;;;;;;5071464;28;20236;-49
2024/01/27 04:43:20;;;;;;;35.00;4.80;;;4.80;99.90;;;;;;5071838;28;20186;-49
2024/01/27 04:45:45;;;;;;;29.97;5.00;;;4.90;99.90;;;;;;5068075;28;21036;-49
2024/01/27 04:48:11;;;;;;;26.70;4.60;;;4.90;99.90;;;;;;5070015;28;20417;-49
2024/01/27 04:50:37;;;;;;;28.83;5.63;;;4.80;99.90;;;;;;5070120;28;20171;-49
2024/01/27 04:53:02;;;;;;;53.40;6.17;;;4.90;99.90;;;;;;5071698;28;20296;-48
2024/01/27 04:55:28;;;;;;;35.63;5.07;;;4.80;99.90;;;;;;5069522;28;20186;-49
2024/01/27 04:57:54;;;;;;;39.43;5.27;;;4.80;1.00;;;;;;5069890;28;20206;-48
2024/01/27 05:00:20;;;;;;;31.63;4.23;;;4.80;1.00;;;;;;5069720;28;20190;-49
2024/01/27 05:02:45;;;;;;;26.70;5.27;;;4.80;1.00;;;;;;5070958;28;20412;-49
2024/01/27 05:05:11;;;;;;;35.93;4.83;;;4.80;1.00;;;;;;5075055;28;20174;-49
2024/01/27 05:07:38;;;;;;;43.13;5.30;;;4.80;1.00;;;;;;5073488;28;20230;-49
2024/01/27 05:10:04;;;;;;;32.47;5.77;;;4.70;99.90;;;;;;5074983;28;20840;-49
2024/01/27 05:12:30;;;;;;;32.30;4.50;;;4.70;99.90;;;;;;5072771;28;20464;-48
2024/01/27 05:14:55;;;;;;;29.60;4.63;;;4.70;63.60;;;;;;5073288;28;20519;-49
2024/01/27 05:17:21;;;;;;;35.67;4.57;;;4.60;99.90;;;;;;5074818;28;20189;-49
2024/01/27 05:19:46;;;;;;;43.53;4.77;;;4.50;1.00;;;;;;5074296;28;20182;-48
2024/01/27 05:22:12;;;;;;;38.00;5.00;;;4.50;95.10;;;;;;5072967;28;20243;-49
2024/01/27 05:24:38;;;;;;;29.70;4.97;;;4.50;99.90;;;;;;5074404;28;20649;-48
2024/01/27 05:27:03;;;;;;;27.13;4.53;;;4.40;99.90;;;;;;5073627;28;20189;-49
2024/01/27 05:29:29;;;;;;;30.73;5.40;;;4.40;1.00;;;;;;5074283;28;20178;-48
2024/01/27 05:31:55;;;;;;;34.63;5.60;;;4.30;99.90;;;;;;5074394;28;20266;-49
2024/01/27 05:34:20;;;;;;;40.67;5.17;;;4.30;1.00;;;;;;5071856;28;20186;-49
2024/01/27 05:36:47;;;;;;;31.40;5.70;;;4.30;99.90;;;;;;5074374;28;20186;-48
2024/01/27 05:39:14;;;;;;;37.40;5.30;;;4.20;1.00;;;;;;5073867;28;20538;-48
2024/01/27 05:41:39;;;;;;;38.60;6.20;;;4.20;1.00;;;;;;5074105;28;20440;-48
2024/01/27 05:44:05;;;;;;;52.63;6.70;;;4.20;18.30;;;;;;5074650;28;20413;-49
2024/01/27 05:46:31;;;;;;;44.00;5.93;;;4.20;99.90;;;;;;5073251;28;20268;-49
2024/01/27 05:49:01;;;;;;;55.00;5.90;;;4.20;99.90;;;;;;5070945;28;20253;-48
2024/01/27 05:51:27;;;;;;;23.90;4.43;;;4.20;99.90;;;;;;5074833;28;20293;-48
2024/01/27 05:53:52;;;;;;;29.63;5.70;;;4.10;99.90;;;;;;5073405;28;20511;-48
2024/01/27 05:56:20;;;;;;;39.03;4.97;;;4.20;80.20;;;;;;5073561;28;20247;-47
2024/01/27 05:58:46;;;;;;;34.00;5.60;;;4.20;1.00;;;;;;5074118;28;20182;-47
2024/01/27 06:01:11;;;;;;;34.50;5.77;;;4.20;1.00;;;;;;5072056;28;20427;-48
2024/01/27 06:03:37;;;;;;;46.87;5.40;;;4.20;1.00;;;;;;5073138;28;20178;-48
2024/01/27 06:06:03;;;;;;;21.70;4.27;;;4.20;1.00;;;;;;5073041;28;20180;-48
2024/01/27 06:08:29;;;;;;;49.07;6.00;;;4.10;1.00;;;;;;5073003;28;20229;-48
2024/01/27 06:10:54;;;;;;;31.63;5.23;;;4.10;99.90;;;;;;5071706;28;20265;-48
2024/01/27 06:13:20;;;;;;;32.83;5.03;;;4.10;99.90;;;;;;5072178;28;20186;-48
2024/01/27 06:15:45;;;;;;;27.00;4.90;;;4.10;1.00;;;;;;5073934;28;20183;-47
2024/01/27 06:18:11;;;;;;;49.73;7.07;;;4.10;29.20;;;;;;5072898;28;20176;-48
2024/01/27 06:20:36;;;;;;;37.67;5.87;;;4.10;1.00;;;;;;5072368;28;20273;-48
2024/01/27 06:23:02;;;;;;;34.23;5.93;;;4.00;1.00;;;;;;5073126;28;20240;-47
2024/01/27 06:25:28;;;;;;;27.77;5.40;;;4.00;99.90;;;;;;5072707;28;20178;-47
2024/01/27 06:27:53;;;;;;;50.90;5.73;;;3.90;1.00;;;;;;5073262;28;20217;-49
2024/01/27 06:30:19;;;;;;;37.17;5.50;;;3.90;1.00;;;;;;5072538;28;20189;-47
2024/01/27 06:32:46;;;;;;;34.57;5.80;;;3.90;99.90;;;;;;5072491;28;20202;-48
2024/01/27 06:35:11;;;;;;;30.73;5.40;;;3.90;17.10;;;;;;5071635;28;20231;-47
2024/01/27 06:37:37;;;;;;;27.10;6.93;;;3.80;1.00;;;;;;5074028;28;20417;-47
2024/01/27 06:40:03;;;;;;;38.03;6.60;;;3.90;99.90;;;;;;5071970;28;20221;-48
2024/01/27 06:42:28;;;;;;;47.00;5.50;;;3.90;1.00;;;;;;5071270;28;20507;-48
2024/01/27 06:44:54;;;;;;;36.57;5.20;;;3.90;1.00;;;;;;5071926;28;20654;-49
2024/01/27 06:47:19;;;;;;;36.00;5.57;;;3.80;1.00;;;;;;5072204;28;20190;-47
2024/01/27 06:49:45;;;;;;;32.90;5.23;;;3.80;1.00;;;;;;5072967;28;20235;-48
2024/01/27 06:52:12;;;;;;;31.43;4.60;;;3.80;99.90;;;;;;5070415;28;20217;-47
2024/01/27 06:54:41;;;;;;;46.83;5.70;;;3.70;1.00;;;;;;5072943;28;20194;-48
2024/01/27 06:57:17;;;;;;;37.20;5.83;;;3.70;1.00;;;;;;5071933;28;20904;-48
2024/01/27 06:59:42;;;;;;;36.70;5.63;;;3.70;1.00;;;;;;5072890;28;20497;-47
2024/01/27 07:02:13;;;;;;;44.93;5.80;;;3.60;1.00;;;;;;5072199;28;20451;-48
2024/01/27 07:04:39;;;;;;;31.10;5.70;;;3.60;27.40;;;;;;5071766;28;20182;-48
2024/01/27 07:07:04;;;;;;;30.03;5.40;;;3.60;99.90;;;;;;5072256;28;20495;-49
2024/01/27 07:09:30;;;;;;;39.43;5.57;;;3.60;48.50;;;;;;5072059;28;20729;-49
2024/01/27 07:11:56;;;;;;;38.70;5.80;;;3.60;1.00;;;;;;5071517;28;20705;-49
2024/01/27 07:14:21;;;;;;;40.77;5.53;;;3.50;1.00;;;;;;5072178;28;20257;-48
2024/01/27 07:16:47;;;;;;;26.37;5.30;;;3.40;99.90;;;;;;5072403;28;20189;-47
2024/01/27 07:19:13;;;;;;;38.20;5.20;;;3.40;99.90;;;;;;5071416;28;20268;-48
2024/01/27 07:21:39;;;;;;;42.57;5.87;;;3.50;1.00;;;;;;5072279;28;20707;-48
2024/01/27 07:24:04;;;;;;;30.50;5.47;;;3.50;1.00;;;;;;5072070;28;20417;-48
2024/01/27 07:26:31;;;;;;;36.70;5.40;;;3.40;1.00;;;;;;5069352;28;20538;-48
2024/01/27 07:28:57;;;;;;;35.93;5.70;;;3.40;26.20;;;;;;5071398;28;20261;-48
2024/01/27 07:31:24;;;;;;;27.67;4.83;;;3.30;99.90;;;;;;5073236;28;20543;-49
2024/01/27 07:33:50;;;;;;;44.23;6.13;;;3.30;99.90;;;;;;5072395;28;20222;-47
2024/01/27 07:36:16;;;;;;;32.80;5.73;;;3.30;99.90;;;;;;5070216;28;20478;-47
2024/01/27 07:38:41;;;;;;;38.20;6.33;;;3.30;1.00;;;;;;5070406;28;20173;-48
2024/01/27 07:41:07;;;;;;;42.63;6.30;;;3.30;1.00;;;;;;5072328;28;20421;-48
2024/01/27 07:43:32;;;;;;;34.77;5.90;;;3.30;1.00;;;;;;5071788;28;20178;-48
2024/01/27 07:45:58;;;;;;;33.23;5.37;;;3.30;1.00;;;;;;5072160;28;20205;-47
2024/01/27 07:48:23;;;;;;;39.90;5.27;;;3.30;1.00;;;;;;5070842;28;20183;-48
2024/01/27 07:50:50;;;;;;;30.07;5.17;;;3.30;1.00;;;;;;5071015;28;20211;-49
2024/01/27 07:53:16;;;;;;;32.17;5.23;;;3.30;1.00;;;;;;5070637;28;20237;-49
2024/01/27 07:55:41;;;;;;;30.40;5.53;;;3.40;1.00;;;;;;5070744;28;20467;-49
2024/01/27 07:58:07;;;;;;;29.30;4.60;;;3.40;1.00;;;;;;5071563;28;20182;-49
2024/01/27 08:00:32;;;;;;;31.80;4.87;;;3.50;1.00;;;;;;5071149;28;20174;-48
2024/01/27 08:02:58;;;;;;;21.17;4.77;;;3.60;99.90;;;;;;5069674;28;20178;-48
2024/01/27 08:05:24;;;;;;;46.47;5.20;;;3.60;1.00;;;;;;5071730;28;20662;-49
2024/01/27 08:07:49;;;;;;;26.63;4.50;;;3.60;99.90;;;;;;5070466;28;20565;-48
2024/01/27 08:10:15;;;;;;;25.67;4.33;;;3.60;99.90;;;;;;5071918;28;20630;-48
2024/01/27 08:12:42;;;;;;;31.73;4.13;;;3.60;99.90;;;;;;5070069;28;20321;-48
2024/01/27 08:15:07;;;;;;;37.20;5.00;;;3.60;1.00;;;;;;5070103;28;20512;-48
2024/01/27 08:17:33;;;;;;;26.43;3.80;;;3.70;99.90;;;;;;5070695;28;20206;-49
2024/01/27 08:19:59;;;;;;;33.20;5.03;;;3.70;99.90;;;;;;5070995;28;20181;-48
2024/01/27 08:22:24;;;;;;;25.40;5.00;;;3.70;75.90;;;;;;5070578;28;20194;-49
2024/01/27 08:24:50;;;;;;;23.43;4.43;;;3.70;1.00;;;;;;5070446;28;20181;-48
2024/01/27 08:27:16;;;;;;;29.87;4.00;;;3.80;99.90;;;;;;5070671;28;20181;-49
2024/01/27 08:29:41;;;;;;;21.90;4.73;;;3.80;1.00;;;;;;5071184;28;20178;-48
2024/01/27 08:32:07;;;;;;;33.00;4.63;;;3.80;99.90;;;;;;5070272;28;20220;-48
2024/01/27 08:34:32;;;;;;;19.37;4.50;;;3.90;1.00;;;;;;5070945;28;20261;-49
2024/01/27 08:37:01;;;;;;;28.60;4.87;;;3.90;99.90;;;;;;5069474;28;20657;-48
2024/01/27 08:39:26;;;;;;;25.93;4.57;;;4.00;1.00;;;;;;5069949;28;20193;-49
2024/01/27 08:41:52;;;;;;;31.70;4.43;;;4.00;99.90;;;;;;5070451;28;20420;-50
2024/01/27 08:44:17;;;;;;;27.43;4.63;;;4.10;99.90;;;;;;5070732;28;20185;-49
2024/01/27 08:46:43;;;;;;;25.47;4.13;;;4.10;1.00;;;;;;5069712;28;20227;-48
2024/01/27 08:49:08;;;;;;;26.07;5.00;;;4.20;73.00;;;;;;5070956;28;20183;-48
2024/01/27 08:51:34;;;;;;;23.70;4.80;;;4.20;1.00;;;;;;5070885;28;20290;-48
2024/01/27 08:54:00;;;;;;;21.10;4.47;;;4.20;99.90;;;;;;5068845;28;20335;-49
2024/01/27 08:56:25;;;;;;;23.90;4.30;;;4.20;99.90;;;;;;5069649;28;20707;-48
2024/01/27 08:58:52;;;;;;;16.73;4.20;;;4.30;99.90;;;;;;5070800;28;20169;-49
2024/01/27 09:01:18;;;;;;;21.17;4.67;;;4.30;49.30;;;;;;5070894;28;20190;-49
2024/01/27 09:03:43;;;;;;;23.30;4.83;;;4.30;1.00;;;;;;5069714;28;20424;-49
2024/01/27 09:06:09;;;;;;;17.57;3.90;;;4.40;1.00;;;;;;5070104;28;20182;-48
2024/01/27 09:08:35;;;;;;;30.00;4.50;;;4.30;1.00;;;;;;5070353;28;20404;-49
2024/01/27 09:11:02;;;;;;;24.73;4.53;;;4.40;1.00;;;;;;5068971;28;20598;-49
2024/01/27 09:13:28;;;;;;;36.10;4.67;;;4.40;99.90;;;;;;5069251;28;20304;-49
2024/01/27 09:15:53;;;;;;;13.87;3.80;;;4.40;99.90;;;;;;5070856;28;20955;-49
2024/01/27 09:18:19;;;;;;;19.20;4.23;;;4.40;99.90;;;;;;5070741;28;20189;-49
2024/01/27 09:20:45;;;;;;;26.83;4.80;;;4.50;99.90;;;;;;5070243;28;20178;-48
2024/01/27 09:23:11;;;;;;;20.40;4.30;;;4.60;99.90;;;;;;5069870;28;20424;-48
2024/01/27 09:25:37;;;;;;;25.43;4.70;;;4.60;99.90;;;;;;5069509;28;20280;-48
2024/01/27 09:28:03;;;;;;;19.50;3.70;;;4.70;22.30;;;;;;5069568;28;20959;-48
2024/01/27 09:30:28;;;;;;;17.67;3.87;;;4.70;1.00;;;;;;5071416;28;20186;-49
2024/01/27 09:32:54;;;;;;;22.90;4.47;;;4.70;1.00;;;;;;5069618;28;20872;-49
2024/01/27 09:35:20;;;;;;;23.47;4.87;;;4.70;1.00;;;;;;5068927;28;20269;-49
2024/01/27 09:37:46;;;;;;;33.97;4.50;;;4.80;1.00;;;;;;5069415;28;20461;-48
2024/01/27 09:40:12;;;;;;;22.67;3.87;;;4.80;1.00;;;;;;5070667;28;21433;-49
2024/01/27 09:42:41;;;;;;;22.33;4.70;;;4.80;1.00;;;;;;5069367;28;20592;-47
2024/01/27 09:45:09;;;;;;;27.30;5.13;;;4.80;1.00;;;;;;5068469;28;20428;-48
2024/01/27 09:47:36;;;;;;;29.50;5.40;;;4.90;1.00;;;;;;5067953;28;20440;-48
2024/01/27 09:50:01;;;;;;;26.90;5.03;;;4.90;1.00;;;;;;5072223;28;20428;-48
2024/01/27 09:52:27;;;;;;;20.83;5.80;;;5.00;1.00;;;;;;5072948;28;20486;-48
2024/01/27 09:54:53;;;;;;;23.43;4.27;;;5.10;1.00;;;;;;5071823;28;20190;-50
2024/01/27 09:57:20;;;;;;;20.37;4.83;;;5.10;1.00;;;;;;5072813;28;20178;-50
2024/01/27 09:59:49;;;;;;;22.83;4.70;;;5.10;1.00;;;;;;5073006;28;20189;-49
2024/01/27 10:02:17;;;;;;;25.30;4.67;;;5.20;1.00;;;;;;5073464;28;20515;-49
2024/01/27 10:04:45;;;;;;;23.97;4.43;;;5.30;1.00;;;;;;5073471;28;20413;-48
2024/01/27 10:07:11;;;;;;;28.27;4.67;;;5.40;99.90;;;;;;5073041;28;20860;-48
2024/01/27 10:09:36;;;;;;;17.07;3.83;;;5.50;99.90;;;;;;5072776;28;20480;-48
2024/01/27 10:12:02;;;;;;;13.30;3.90;;;5.60;99.90;;;;;;5073085;28;20214;-48
2024/01/27 10:14:41;;;;;;;19.17;4.27;;;5.90;99.90;;;;;;5072917;28;20218;-49
2024/01/27 10:17:10;;;;;;;20.10;4.80;;;6.70;99.90;;;;;;5072949;28;20900;-49
2024/01/27 10:19:35;;;;;;;22.73;4.80;;;7.20;99.90;;;;;;5072140;28;20432;-48
2024/01/27 10:22:04;;;;;;;18.57;4.03;;;7.50;66.70;;;;;;5072967;28;20429;-49
2024/01/27 10:24:35;;;;;;;22.10;4.17;;;7.60;54.00;;;;;;5072439;28;20896;-49
2024/01/27 10:27:02;;;;;;;22.00;5.00;;;7.60;39.10;;;;;;5072561;28;20917;-48
2024/01/27 10:29:28;;;;;;;29.70;4.20;;;7.50;26.50;;;;;;5073645;28;20534;-48
2024/01/27 10:31:53;;;;;;;23.60;4.27;;;7.30;23.80;;;;;;5071635;28;20456;-49
2024/01/27 10:34:21;;;;;;;13.20;3.53;;;7.30;26.90;;;;;;5072725;28;20419;-48
2024/01/27 10:36:47;;;;;;;15.40;4.40;;;7.20;33.40;;;;;;5072497;28;20323;-48
2024/01/27 10:39:25;;;;;;;14.37;3.70;;;7.40;37.10;;;;;;5072558;28;20507;-49
2024/01/27 10:41:51;;;;;;;18.23;4.07;;;7.50;27.40;;;;;;5073623;28;20633;-48
2024/01/27 10:44:18;;;;;;;18.37;3.90;;;7.60;20.50;;;;;;5072737;28;20412;-48
2024/01/27 10:46:48;;;;;;;29.20;4.50;;;7.70;15.20;;;;;;5071785;28;20904;-49
2024/01/27 10:49:15;;;;;;;20.63;5.33;;;7.90;13.10;;;;;;5071870;28;20416;-49
2024/01/27 10:51:54;;;;;;;19.40;3.97;;;8.40;1.00;;;;;;5073197;28;20467;-49
2024/01/27 10:54:25;;;;;;;17.47;3.77;;;8.80;1.00;;;;;;5073276;28;20404;-49
2024/01/27 10:56:53;;;;;;;20.73;3.63;;;10.20;1.00;;;;;;5071722;28;20763;-49
2024/01/27 10:59:20;;;;;;;20.77;3.97;;;11.70;1.00;;;;;;5071980;28;20536;-49
2024/01/27 11:01:51;;;;;;;16.50;3.40;;;13.30;1.00;;;;;;5071601;28;20424;-49
2024/01/27 11:04:17;;;;;;;16.23;3.83;;;14.70;1.00;;;;;;5072603;28;20491;-49
2024/01/27 11:06:44;;;;;;;13.53;3.20;;;14.80;1.00;;;;;;5071869;28;20578;-49
2024/01/27 11:09:11;;;;;;;19.23;4.07;;;15.60;1.00;;;;;;5070657;28;20213;-50
2024/01/27 11:11:38;;;;;;;19.00;4.07;;;16.70;1.00;;;;;;5070875;28;20468;-50
2024/01/27 11:14:04;;;;;;;19.93;3.40;;;16.90;1.00;;;;;;5071819;28;20431;-50
2024/01/27 11:16:29;;;;;;;13.20;3.90;;;17.10;1.00;;;;;;5075044;28;20412;-50
2024/01/27 11:18:55;;;;;;;15.17;4.00;;;17.30;1.00;;;;;;5074843;28;20174;-50
2024/01/27 11:21:20;;;;;;;11.87;3.47;;;17.30;1.00;;;;;;5074556;28;20205;-50
2024/01/27 11:23:47;;;;;;;17.13;3.60;;;17.80;1.00;;;;;;5074568;28;20220;-48
2024/01/27 11:26:19;;;;;;;12.83;3.33;;;17.80;1.00;;;;;;5074154;28;20190;-50
2024/01/27 11:28:45;;;;;;;13.97;4.37;;;18.00;1.00;;;;;;5074621;28;20481;-49
2024/01/27 11:31:11;;;;;;;14.27;3.97;;;18.30;1.00;;;;;;5074322;28;20859;-50
2024/01/27 11:33:44;;;;;;;17.17;3.60;;;18.80;1.00;;;;;;5074718;28;20186;-49
2024/01/27 11:36:23;;;;;;;11.17;3.60;;;18.30;1.00;;;;;;5074231;28;20537;-49
2024/01/27 11:38:50;;;;;;;16.10;3.50;;;16.60;1.00;;;;;;5074508;28;20408;-50
2024/01/27 11:41:26;;;;;;;12.20;3.53;;;15.50;1.00;;;;;;5073941;28;20779;-49
2024/01/27 11:43:53;;;;;;;15.37;3.80;;;14.90;1.00;;;;;;5074376;28;20416;-50
2024/01/27 11:46:20;;;;;;;13.27;3.40;;;14.20;1.00;;;;;;5074458;28;20420;-49
2024/01/27 11:48:45;;;;;;;17.95;4.10;;;13.50;1.00;;;;;;5073143;28;20441;-51
2024/01/27 11:51:12;;;;;;;16.57;3.80;;;13.00;1.00;;;;;;5072808;28;20414;-48
2024/01/27 11:53:38;;;;;;;17.30;4.40;;;12.70;1.00;;;;;;5074208;28;20224;-48
2024/01/27 11:56:04;;;;;;;17.63;4.13;;;12.50;1.00;;;;;;5074092;28;20453;-49
2024/01/27 11:58:31;;;;;;;11.30;3.40;;;12.40;1.00;;;;;;5073629;28;20424;-50
2024/01/27 12:00:58;;;;;;;16.17;3.60;;;12.70;1.00;;;;;;5073719;28;20812;-48
2024/01/27 12:03:24;;;;;;;17.73;3.53;;;12.70;1.00;;;;;;5073961;28;20421;-49
2024/01/27 12:05:49;;;;;;;17.73;4.00;;;12.20;1.00;;;;;;5073618;28;20417;-48
2024/01/27 12:08:16;;;;;;;22.80;3.67;;;12.00;1.00;;;;;;5073479;28;21039;-50
2024/01/27 12:10:42;;;;;;;15.77;3.80;;;12.30;1.00;;;;;;5073761;28;20185;-50
2024/01/27 12:13:08;;;;;;;13.23;4.03;;;12.60;1.00;;;;;;5073319;28;20461;-51
2024/01/27 12:15:33;;;;;;;20.40;3.90;;;12.80;1.00;;;;;;5073736;28;20645;-51
2024/01/27 12:17:59;;;;;;;10.70;3.23;;;13.20;1.00;;;;;;5073491;28;20693;-51
2024/01/27 12:20:25;;;;;;;16.13;3.90;;;13.40;1.00;;;;;;5073382;28;20551;-50
2024/01/27 12:23:05;;;;;;;17.37;3.83;;;13.70;1.00;;;;;;5073163;28;20646;-50
2024/01/27 12:25:31;;;;;;;19.53;4.43;;;14.50;1.00;;;;;;5073553;28;20416;-49
2024/01/27 12:28:00;;;;;;;15.93;3.50;;;14.90;1.00;;;;;;5073292;28;20409;-49
2024/01/27 12:30:26;;;;;;;16.65;4.35;;;15.30;1.00;;;;;;5073055;28;20394;-51
2024/01/27 12:32:52;;;;;;;14.27;3.60;;;15.70;1.00;;;;;;5072866;28;20437;-51
2024/01/27 12:35:18;;;;;;;23.63;4.83;;;16.20;1.00;;;;;;5073343;28;20589;-51
2024/01/27 12:37:43;;;;;;;15.97;4.10;;;15.70;1.00;;;;;;5073570;28;20452;-51
2024/01/27 12:40:22;;;;;;;9.90;2.83;;;15.50;1.00;;;;;;5073554;28;20243;-50
2024/01/27 12:42:48;;;;;;;14.43;3.33;;;15.60;1.00;;;;;;5073300;28;20196;-50
2024/01/27 12:45:14;;;;;;;21.63;3.70;;;15.70;1.00;;;;;;5072897;28;20478;-50